sensor_id;sensor_type;location;lat;lon;timestamp;temperature;humidity
13464;DHT22;6804;48.774;9.174;2023-06-10T00:00:12;21.20;93.20
13464;DHT22;6804;48.774;9.174;2023-06-10T00:02:43;21.10;93.70
13464;DHT22;6804;48.774;9.174;2023-06-10T00:05:13;21.10;93.50
13464;DHT22;6804;48.774;9.174;2023-06-10T00:07:42;21.00;93.70
13464;DHT22;6804;48.774;9.174;2023-06-10T00:10:12;20.90;93.60
13464;DHT22;6804;48.774;9.174;2023-06-10T00:12:41;20.80;93.60
13464;DHT22;6804;48.774;9.174;2023-06-10T00:15:11;20.80;93.70
13464;DHT22;6804;48.774;9.174;2023-06-10T00:17:40;20.80;93.80
13464;DHT22;6804;48.774;9.174;2023-06-10T00:20:11;20.80;93.80
13464;DHT22;6804;48.774;9.174;2023-06-10T00:22:39;20.80;93.90
13464;DHT22;6804;48.774;9.174;2023-06-10T00:25:09;20.80;93.90
13464;DHT22;6804;48.774;9.174;2023-06-10T00:27:39;20.80;93.80
13464;DHT22;6804;48.774;9.174;2023-06-10T00:30:27;20.80;93.80
13464;DHT22;6804;48.774;9.174;2023-06-10T00:32:55;20.90;94.00
13464;DHT22;6804;48.774;9.174;2023-06-10T00:35:22;20.80;94.00
13464;DHT22;6804;48.774;9.174;2023-06-10T00:37:52;20.80;94.10
13464;DHT22;6804;48.774;9.174;2023-06-10T00:40:22;20.80;94.20
13464;DHT22;6804;48.774;9.174;2023-06-10T00:42:51;20.70;94.30
13464;DHT22;6804;48.774;9.174;2023-06-10T00:45:18;20.70;94.30
13464;DHT22;6804;48.774;9.174;2023-06-10T00:47:47;20.60;94.60
13464;DHT22;6804;48.774;9.174;2023-06-10T00:50:21;20.60;94.80
13464;DHT22;6804;48.774;9.174;2023-06-10T00:52:54;20.50;95.10
13464;DHT22;6804;48.774;9.174;2023-06-10T00:55:25;20.40;95.10
13464;DHT22;6804;48.774;9.174;2023-06-10T00:57:53;20.40;95.30
13464;DHT22;6804;48.774;9.174;2023-06-10T01:00:20;20.30;95.50
13464;DHT22;6804;48.774;9.174;2023-06-10T01:02:57;20.30;95.40
13464;DHT22;6804;48.774;9.174;2023-06-10T01:05:24;20.30;95.40
13464;DHT22;6804;48.774;9.174;2023-06-10T01:07:56;20.40;95.40
13464;DHT22;6804;48.774;9.174;2023-06-10T01:10:34;20.40;95.30
13464;DHT22;6804;48.774;9.174;2023-06-10T01:13:05;20.40;95.50
13464;DHT22;6804;48.774;9.174;2023-06-10T01:15:38;20.30;95.50
13464;DHT22;6804;48.774;9.174;2023-06-10T01:18:12;20.30;95.50
13464;DHT22;6804;48.774;9.174;2023-06-10T01:20:45;20.30;95.60
13464;DHT22;6804;48.774;9.174;2023-06-10T01:23:17;20.20;95.60
13464;DHT22;6804;48.774;9.174;2023-06-10T01:25:53;20.30;95.70
13464;DHT22;6804;48.774;9.174;2023-06-10T01:28:27;20.20;95.60
13464;DHT22;6804;48.774;9.174;2023-06-10T01:31:00;20.20;95.90
13464;DHT22;6804;48.774;9.174;2023-06-10T01:33:38;20.10;96.10
13464;DHT22;6804;48.774;9.174;2023-06-10T01:36:07;19.90;96.40
13464;DHT22;6804;48.774;9.174;2023-06-10T01:38:40;19.80;96.70
13464;DHT22;6804;48.774;9.174;2023-06-10T01:41:09;19.80;96.70
13464;DHT22;6804;48.774;9.174;2023-06-10T01:43:40;19.80;96.90
13464;DHT22;6804;48.774;9.174;2023-06-10T01:46:07;19.80;97.00
13464;DHT22;6804;48.774;9.174;2023-06-10T01:48:36;19.80;96.90
13464;DHT22;6804;48.774;9.174;2023-06-10T01:51:04;19.80;96.80
13464;DHT22;6804;48.774;9.174;2023-06-10T01:53:35;19.70;97.00
13464;DHT22;6804;48.774;9.174;2023-06-10T01:56:03;19.80;97.00
13464;DHT22;6804;48.774;9.174;2023-06-10T01:58:31;19.80;96.90
13464;DHT22;6804;48.774;9.174;2023-06-10T02:00:59;19.80;96.80
13464;DHT22;6804;48.774;9.174;2023-06-10T02:03:29;19.80;96.90
13464;DHT22;6804;48.774;9.174;2023-06-10T02:05:57;19.80;97.00
13464;DHT22;6804;48.774;9.174;2023-06-10T02:08:24;19.70;97.30
13464;DHT22;6804;48.774;9.174;2023-06-10T02:10:53;19.70;97.30
13464;DHT22;6804;48.774;9.174;2023-06-10T02:13:22;19.70;97.20
13464;DHT22;6804;48.774;9.174;2023-06-10T02:15:49;19.70;97.30
13464;DHT22;6804;48.774;9.174;2023-06-10T02:18:19;19.60;97.50
13464;DHT22;6804;48.774;9.174;2023-06-10T02:20:47;19.60;97.80
13464;DHT22;6804;48.774;9.174;2023-06-10T02:23:15;19.50;98.00
13464;DHT22;6804;48.774;9.174;2023-06-10T02:25:45;19.50;97.90
13464;DHT22;6804;48.774;9.174;2023-06-10T02:28:16;19.60;97.80
13464;DHT22;6804;48.774;9.174;2023-06-10T02:30:45;19.50;97.90
13464;DHT22;6804;48.774;9.174;2023-06-10T02:33:16;19.50;97.80
13464;DHT22;6804;48.774;9.174;2023-06-10T02:35:43;19.40;98.20
13464;DHT22;6804;48.774;9.174;2023-06-10T02:38:16;19.40;98.20
13464;DHT22;6804;48.774;9.174;2023-06-10T02:40:44;19.30;98.30
13464;DHT22;6804;48.774;9.174;2023-06-10T02:43:14;19.40;98.20
13464;DHT22;6804;48.774;9.174;2023-06-10T02:45:45;19.30;98.10
13464;DHT22;6804;48.774;9.174;2023-06-10T02:48:15;19.30;98.20
13464;DHT22;6804;48.774;9.174;2023-06-10T02:50:46;19.30;98.40
13464;DHT22;6804;48.774;9.174;2023-06-10T02:53:16;19.30;98.40
13464;DHT22;6804;48.774;9.174;2023-06-10T02:55:46;19.30;98.40
13464;DHT22;6804;48.774;9.174;2023-06-10T02:58:13;19.30;98.30
13464;DHT22;6804;48.774;9.174;2023-06-10T03:00:41;19.30;98.60
13464;DHT22;6804;48.774;9.174;2023-06-10T03:03:19;19.30;98.60
13464;DHT22;6804;48.774;9.174;2023-06-10T03:05:48;19.20;98.50
13464;DHT22;6804;48.774;9.174;2023-06-10T03:08:18;19.20;98.70
13464;DHT22;6804;48.774;9.174;2023-06-10T03:10:45;19.20;98.80
13464;DHT22;6804;48.774;9.174;2023-06-10T03:13:13;19.10;98.90
13464;DHT22;6804;48.774;9.174;2023-06-10T03:15:41;19.00;99.20
13464;DHT22;6804;48.774;9.174;2023-06-10T03:18:08;19.10;99.20
13464;DHT22;6804;48.774;9.174;2023-06-10T03:20:37;19.00;99.10
13464;DHT22;6804;48.774;9.174;2023-06-10T03:23:09;19.10;99.20
13464;DHT22;6804;48.774;9.174;2023-06-10T03:25:36;19.10;99.10
13464;DHT22;6804;48.774;9.174;2023-06-10T03:28:04;19.00;99.20
13464;DHT22;6804;48.774;9.174;2023-06-10T03:30:31;19.00;99.20
13464;DHT22;6804;48.774;9.174;2023-06-10T03:32:58;19.00;99.60
13464;DHT22;6804;48.774;9.174;2023-06-10T03:35:29;18.90;99.50
13464;DHT22;6804;48.774;9.174;2023-06-10T03:37:58;18.90;99.60
13464;DHT22;6804;48.774;9.174;2023-06-10T03:40:28;19.00;99.50
13464;DHT22;6804;48.774;9.174;2023-06-10T03:43:00;19.00;99.50
13464;DHT22;6804;48.774;9.174;2023-06-10T03:45:27;19.00;99.40
13464;DHT22;6804;48.774;9.174;2023-06-10T03:47:55;19.00;99.40
13464;DHT22;6804;48.774;9.174;2023-06-10T03:50:23;19.00;99.40
13464;DHT22;6804;48.774;9.174;2023-06-10T03:52:50;19.00;99.50
13464;DHT22;6804;48.774;9.174;2023-06-10T03:55:19;19.00;99.60
13464;DHT22;6804;48.774;9.174;2023-06-10T03:57:47;19.00;99.70
13464;DHT22;6804;48.774;9.174;2023-06-10T04:00:16;19.00;99.80
13464;DHT22;6804;48.774;9.174;2023-06-10T04:02:45;18.90;99.80
13464;DHT22;6804;48.774;9.174;2023-06-10T04:05:20;19.00;99.90
13464;DHT22;6804;48.774;9.174;2023-06-10T04:07:48;19.00;99.80
13464;DHT22;6804;48.774;9.174;2023-06-10T04:10:20;19.10;99.80
13464;DHT22;6804;48.774;9.174;2023-06-10T04:12:48;19.20;99.90
13464;DHT22;6804;48.774;9.174;2023-06-10T04:15:19;19.30;99.50
13464;DHT22;6804;48.774;9.174;2023-06-10T04:17:50;19.40;99.50
13464;DHT22;6804;48.774;9.174;2023-06-10T04:20:18;19.60;99.40
13464;DHT22;6804;48.774;9.174;2023-06-10T04:23:04;19.60;99.00
13464;DHT22;6804;48.774;9.174;2023-06-10T04:25:35;19.70;99.00
13464;DHT22;6804;48.774;9.174;2023-06-10T04:28:03;19.80;98.80
13464;DHT22;6804;48.774;9.174;2023-06-10T04:30:30;19.90;98.70
13464;DHT22;6804;48.774;9.174;2023-06-10T04:33:00;20.00;98.40
13464;DHT22;6804;48.774;9.174;2023-06-10T04:35:48;20.10;98.30
13464;DHT22;6804;48.774;9.174;2023-06-10T04:38:18;20.20;98.40
13464;DHT22;6804;48.774;9.174;2023-06-10T04:40:48;20.20;98.70
13464;DHT22;6804;48.774;9.174;2023-06-10T04:43:17;20.40;98.20
13464;DHT22;6804;48.774;9.174;2023-06-10T04:45:46;20.50;98.00
13464;DHT22;6804;48.774;9.174;2023-06-10T04:48:16;20.50;97.80
13464;DHT22;6804;48.774;9.174;2023-06-10T04:50:43;20.60;97.90
13464;DHT22;6804;48.774;9.174;2023-06-10T04:53:11;20.70;97.40
13464;DHT22;6804;48.774;9.174;2023-06-10T04:55:41;20.80;97.20
13464;DHT22;6804;48.774;9.174;2023-06-10T04:58:10;20.90;97.50
13464;DHT22;6804;48.774;9.174;2023-06-10T05:00:37;21.00;97.30
13464;DHT22;6804;48.774;9.174;2023-06-10T05:03:10;21.10;96.50
13464;DHT22;6804;48.774;9.174;2023-06-10T05:05:39;21.10;97.10
13464;DHT22;6804;48.774;9.174;2023-06-10T05:08:07;21.30;96.80
13464;DHT22;6804;48.774;9.174;2023-06-10T05:10:34;21.50;96.50
13464;DHT22;6804;48.774;9.174;2023-06-10T05:13:04;21.40;95.90
13464;DHT22;6804;48.774;9.174;2023-06-10T05:15:36;21.30;96.00
13464;DHT22;6804;48.774;9.174;2023-06-10T05:18:11;21.40;95.80
13464;DHT22;6804;48.774;9.174;2023-06-10T05:20:41;21.40;96.10
13464;DHT22;6804;48.774;9.174;2023-06-10T05:23:10;21.60;96.20
13464;DHT22;6804;48.774;9.174;2023-06-10T05:25:38;21.80;96.00
13464;DHT22;6804;48.774;9.174;2023-06-10T05:28:10;21.90;95.10
13464;DHT22;6804;48.774;9.174;2023-06-10T05:30:38;21.90;95.20
13464;DHT22;6804;48.774;9.174;2023-06-10T05:33:10;22.00;95.30
13464;DHT22;6804;48.774;9.174;2023-06-10T05:36:02;22.10;94.90
13464;DHT22;6804;48.774;9.174;2023-06-10T05:38:31;21.90;95.40
13464;DHT22;6804;48.774;9.174;2023-06-10T05:41:01;21.80;95.50
13464;DHT22;6804;48.774;9.174;2023-06-10T05:43:31;21.90;95.80
13464;DHT22;6804;48.774;9.174;2023-06-10T05:46:01;22.10;95.50
13464;DHT22;6804;48.774;9.174;2023-06-10T05:48:33;22.20;95.40
13464;DHT22;6804;48.774;9.174;2023-06-10T05:51:00;22.10;95.10
13464;DHT22;6804;48.774;9.174;2023-06-10T05:53:32;21.90;95.70
13464;DHT22;6804;48.774;9.174;2023-06-10T05:56:00;21.80;96.00
13464;DHT22;6804;48.774;9.174;2023-06-10T05:58:29;22.00;95.80
13464;DHT22;6804;48.774;9.174;2023-06-10T06:00:56;22.20;95.70
13464;DHT22;6804;48.774;9.174;2023-06-10T06:03:25;22.30;95.60
13464;DHT22;6804;48.774;9.174;2023-06-10T06:05:54;22.30;95.30
13464;DHT22;6804;48.774;9.174;2023-06-10T06:08:24;22.10;95.70
13464;DHT22;6804;48.774;9.174;2023-06-10T06:10:51;22.10;96.30
13464;DHT22;6804;48.774;9.174;2023-06-10T06:13:44;22.20;95.70
13464;DHT22;6804;48.774;9.174;2023-06-10T06:16:13;22.20;95.80
13464;DHT22;6804;48.774;9.174;2023-06-10T06:18:43;22.40;96.10
13464;DHT22;6804;48.774;9.174;2023-06-10T06:21:12;22.70;95.60
13464;DHT22;6804;48.774;9.174;2023-06-10T06:23:59;23.10;95.20
13464;DHT22;6804;48.774;9.174;2023-06-10T06:26:30;23.30;94.40
13464;DHT22;6804;48.774;9.174;2023-06-10T06:28:57;23.40;94.60
13464;DHT22;6804;48.774;9.174;2023-06-10T06:31:24;23.40;94.40
13464;DHT22;6804;48.774;9.174;2023-06-10T06:33:53;23.10;94.70
13464;DHT22;6804;48.774;9.174;2023-06-10T06:36:22;23.00;95.00
13464;DHT22;6804;48.774;9.174;2023-06-10T06:38:49;23.20;95.00
13464;DHT22;6804;48.774;9.174;2023-06-10T06:41:19;23.30;94.80
13464;DHT22;6804;48.774;9.174;2023-06-10T06:43:51;23.20;94.70
13464;DHT22;6804;48.774;9.174;2023-06-10T06:46:18;23.20;95.00
13464;DHT22;6804;48.774;9.174;2023-06-10T06:48:47;23.20;95.00
13464;DHT22;6804;48.774;9.174;2023-06-10T06:51:15;23.40;94.80
13464;DHT22;6804;48.774;9.174;2023-06-10T06:53:44;23.50;94.90
13464;DHT22;6804;48.774;9.174;2023-06-10T06:56:11;23.80;95.00
13464;DHT22;6804;48.774;9.174;2023-06-10T06:58:39;24.20;94.30
13464;DHT22;6804;48.774;9.174;2023-06-10T07:01:06;24.50;94.10
13464;DHT22;6804;48.774;9.174;2023-06-10T07:03:35;25.00;93.70
13464;DHT22;6804;48.774;9.174;2023-06-10T07:06:06;25.30;92.60
13464;DHT22;6804;48.774;9.174;2023-06-10T07:08:38;25.50;92.90
13464;DHT22;6804;48.774;9.174;2023-06-10T07:11:05;25.40;92.00
13464;DHT22;6804;48.774;9.174;2023-06-10T07:13:34;24.70;92.60
13464;DHT22;6804;48.774;9.174;2023-06-10T07:16:02;24.60;93.70
13464;DHT22;6804;48.774;9.174;2023-06-10T07:18:29;24.90;93.90
13464;DHT22;6804;48.774;9.174;2023-06-10T07:20:57;25.30;93.20
13464;DHT22;6804;48.774;9.174;2023-06-10T07:23:25;25.60;91.90
13464;DHT22;6804;48.774;9.174;2023-06-10T07:25:54;25.40;92.20
13464;DHT22;6804;48.774;9.174;2023-06-10T07:28:23;25.20;92.40
13464;DHT22;6804;48.774;9.174;2023-06-10T07:30:57;25.30;92.40
13464;DHT22;6804;48.774;9.174;2023-06-10T07:33:27;25.40;92.60
13464;DHT22;6804;48.774;9.174;2023-06-10T07:35:55;25.80;92.10
13464;DHT22;6804;48.774;9.174;2023-06-10T07:38:24;26.10;91.60
13464;DHT22;6804;48.774;9.174;2023-06-10T07:40:54;25.80;91.40
13464;DHT22;6804;48.774;9.174;2023-06-10T07:43:23;25.90;91.90
13464;DHT22;6804;48.774;9.174;2023-06-10T07:45:53;26.20;91.80
13464;DHT22;6804;48.774;9.174;2023-06-10T07:48:23;26.30;90.80
13464;DHT22;6804;48.774;9.174;2023-06-10T07:50:56;26.30;90.50
13464;DHT22;6804;48.774;9.174;2023-06-10T07:53:24;26.20;91.20
13464;DHT22;6804;48.774;9.174;2023-06-10T07:55:56;26.30;91.50
13464;DHT22;6804;48.774;9.174;2023-06-10T07:58:24;26.50;90.90
13464;DHT22;6804;48.774;9.174;2023-06-10T08:00:54;26.70;90.70
13464;DHT22;6804;48.774;9.174;2023-06-10T08:03:24;26.90;90.10
13464;DHT22;6804;48.774;9.174;2023-06-10T08:06:11;26.80;90.40
13464;DHT22;6804;48.774;9.174;2023-06-10T08:08:45;27.10;90.20
13464;DHT22;6804;48.774;9.174;2023-06-10T08:11:14;27.20;90.10
13464;DHT22;6804;48.774;9.174;2023-06-10T08:13:42;27.30;90.10
13464;DHT22;6804;48.774;9.174;2023-06-10T08:16:10;26.90;88.90
13464;DHT22;6804;48.774;9.174;2023-06-10T08:18:37;25.90;90.80
13464;DHT22;6804;48.774;9.174;2023-06-10T08:21:05;25.80;91.70
13464;DHT22;6804;48.774;9.174;2023-06-10T08:23:36;25.90;91.20
13464;DHT22;6804;48.774;9.174;2023-06-10T08:26:08;26.00;91.20
13464;DHT22;6804;48.774;9.174;2023-06-10T08:28:38;26.10;91.00
13464;DHT22;6804;48.774;9.174;2023-06-10T08:31:08;26.40;91.00
13464;DHT22;6804;48.774;9.174;2023-06-10T08:33:36;26.40;90.70
13464;DHT22;6804;48.774;9.174;2023-06-10T08:36:06;26.20;90.10
13464;DHT22;6804;48.774;9.174;2023-06-10T08:38:39;25.70;91.10
13464;DHT22;6804;48.774;9.174;2023-06-10T08:41:09;25.30;91.30
13464;DHT22;6804;48.774;9.174;2023-06-10T08:43:48;25.10;91.70
13464;DHT22;6804;48.774;9.174;2023-06-10T08:46:18;25.10;92.10
13464;DHT22;6804;48.774;9.174;2023-06-10T08:48:49;24.70;92.20
13464;DHT22;6804;48.774;9.174;2023-06-10T08:51:19;24.90;92.10
13464;DHT22;6804;48.774;9.174;2023-06-10T08:54:02;25.10;92.20
13464;DHT22;6804;48.774;9.174;2023-06-10T08:56:37;25.50;91.30
13464;DHT22;6804;48.774;9.174;2023-06-10T08:59:08;25.80;90.70
13464;DHT22;6804;48.774;9.174;2023-06-10T09:01:39;25.80;90.60
13464;DHT22;6804;48.774;9.174;2023-06-10T09:04:10;25.80;90.30
13464;DHT22;6804;48.774;9.174;2023-06-10T09:06:39;25.00;90.50
13464;DHT22;6804;48.774;9.174;2023-06-10T09:09:08;24.60;91.20
13464;DHT22;6804;48.774;9.174;2023-06-10T09:11:39;24.60;91.60
13464;DHT22;6804;48.774;9.174;2023-06-10T09:14:10;24.70;91.40
13464;DHT22;6804;48.774;9.174;2023-06-10T09:16:57;24.60;91.30
13464;DHT22;6804;48.774;9.174;2023-06-10T09:19:28;24.80;91.40
13464;DHT22;6804;48.774;9.174;2023-06-10T09:21:56;25.00;91.20
13464;DHT22;6804;48.774;9.174;2023-06-10T09:24:29;25.30;90.70
13464;DHT22;6804;48.774;9.174;2023-06-10T09:27:08;25.40;91.00
13464;DHT22;6804;48.774;9.174;2023-06-10T09:29:52;25.60;91.10
13464;DHT22;6804;48.774;9.174;2023-06-10T09:32:22;25.90;90.60
13464;DHT22;6804;48.774;9.174;2023-06-10T09:34:49;26.20;90.00
13464;DHT22;6804;48.774;9.174;2023-06-10T09:37:20;26.20;89.60
13464;DHT22;6804;48.774;9.174;2023-06-10T09:40:07;26.30;90.00
13464;DHT22;6804;48.774;9.174;2023-06-10T09:42:39;26.50;88.90
13464;DHT22;6804;48.774;9.174;2023-06-10T09:45:09;26.60;89.70
13464;DHT22;6804;48.774;9.174;2023-06-10T09:47:40;26.70;89.90
13464;DHT22;6804;48.774;9.174;2023-06-10T09:50:10;26.80;88.00
13464;DHT22;6804;48.774;9.174;2023-06-10T09:52:41;27.00;87.80
13464;DHT22;6804;48.774;9.174;2023-06-10T09:55:09;27.00;87.40
13464;DHT22;6804;48.774;9.174;2023-06-10T09:57:38;26.30;87.60
13464;DHT22;6804;48.774;9.174;2023-06-10T10:00:10;26.00;89.20
13464;DHT22;6804;48.774;9.174;2023-06-10T10:02:49;26.00;89.40
13464;DHT22;6804;48.774;9.174;2023-06-10T10:05:20;25.70;89.90
13464;DHT22;6804;48.774;9.174;2023-06-10T10:07:54;25.50;90.50
13464;DHT22;6804;48.774;9.174;2023-06-10T10:10:25;25.70;90.90
13464;DHT22;6804;48.774;9.174;2023-06-10T10:12:54;26.00;90.60
13464;DHT22;6804;48.774;9.174;2023-06-10T10:15:31;26.30;89.80
13464;DHT22;6804;48.774;9.174;2023-06-10T10:18:09;26.40;89.40
13464;DHT22;6804;48.774;9.174;2023-06-10T10:20:45;26.20;90.00
13464;DHT22;6804;48.774;9.174;2023-06-10T10:23:20;26.20;88.90
13464;DHT22;6804;48.774;9.174;2023-06-10T10:25:52;26.10;89.20
13464;DHT22;6804;48.774;9.174;2023-06-10T10:28:23;26.30;89.10
13464;DHT22;6804;48.774;9.174;2023-06-10T10:31:01;26.30;87.40
13464;DHT22;6804;48.774;9.174;2023-06-10T10:33:39;26.10;88.20
13464;DHT22;6804;48.774;9.174;2023-06-10T10:36:08;25.90;88.90
13464;DHT22;6804;48.774;9.174;2023-06-10T10:38:42;25.80;88.80
13464;DHT22;6804;48.774;9.174;2023-06-10T10:41:10;25.90;89.10
13464;DHT22;6804;48.774;9.174;2023-06-10T10:43:40;26.00;89.90
13464;DHT22;6804;48.774;9.174;2023-06-10T10:46:16;26.10;89.40
13464;DHT22;6804;48.774;9.174;2023-06-10T10:48:54;26.20;87.50
13464;DHT22;6804;48.774;9.174;2023-06-10T10:51:34;26.40;86.60
13464;DHT22;6804;48.774;9.174;2023-06-10T10:54:16;26.30;87.80
13464;DHT22;6804;48.774;9.174;2023-06-10T10:57:12;26.80;86.00
13464;DHT22;6804;48.774;9.174;2023-06-10T10:59:55;27.30;85.90
13464;DHT22;6804;48.774;9.174;2023-06-10T11:02:41;27.40;82.50
13464;DHT22;6804;48.774;9.174;2023-06-10T11:05:15;27.20;82.90
13464;DHT22;6804;48.774;9.174;2023-06-10T11:07:56;27.40;84.80
13464;DHT22;6804;48.774;9.174;2023-06-10T11:10:31;27.80;85.10
13464;DHT22;6804;48.774;9.174;2023-06-10T11:13:09;28.40;84.00
13464;DHT22;6804;48.774;9.174;2023-06-10T11:15:46;28.90;83.30
13464;DHT22;6804;48.774;9.174;2023-06-10T11:18:23;28.50;81.80
13464;DHT22;6804;48.774;9.174;2023-06-10T11:20:54;28.00;83.10
13464;DHT22;6804;48.774;9.174;2023-06-10T11:23:42;28.00;84.40
13464;DHT22;6804;48.774;9.174;2023-06-10T11:26:12;28.30;83.50
13464;DHT22;6804;48.774;9.174;2023-06-10T11:28:40;28.50;81.90
13464;DHT22;6804;48.774;9.174;2023-06-10T11:31:18;28.50;82.30
13464;DHT22;6804;48.774;9.174;2023-06-10T11:33:53;28.30;82.10
13464;DHT22;6804;48.774;9.174;2023-06-10T11:36:25;28.40;81.60
13464;DHT22;6804;48.774;9.174;2023-06-10T11:38:56;27.90;82.00
13464;DHT22;6804;48.774;9.174;2023-06-10T11:41:31;27.60;82.50
13464;DHT22;6804;48.774;9.174;2023-06-10T11:44:02;27.50;82.90
13464;DHT22;6804;48.774;9.174;2023-06-10T11:46:31;27.50;83.10
13464;DHT22;6804;48.774;9.174;2023-06-10T11:49:04;27.70;84.10
13464;DHT22;6804;48.774;9.174;2023-06-10T11:51:34;28.00;83.00
13464;DHT22;6804;48.774;9.174;2023-06-10T11:54:06;28.40;81.40
13464;DHT22;6804;48.774;9.174;2023-06-10T11:56:33;28.80;80.30
13464;DHT22;6804;48.774;9.174;2023-06-10T11:59:02;28.80;80.90
13464;DHT22;6804;48.774;9.174;2023-06-10T12:01:34;29.10;79.90
13464;DHT22;6804;48.774;9.174;2023-06-10T12:04:05;29.30;79.10
13464;DHT22;6804;48.774;9.174;2023-06-10T12:06:43;29.50;78.90
13464;DHT22;6804;48.774;9.174;2023-06-10T12:09:24;29.70;78.20
13464;DHT22;6804;48.774;9.174;2023-06-10T12:11:57;30.00;78.30
13464;DHT22;6804;48.774;9.174;2023-06-10T12:14:55;30.20;76.80
13464;DHT22;6804;48.774;9.174;2023-06-10T12:17:34;30.40;75.80
13464;DHT22;6804;48.774;9.174;2023-06-10T12:20:07;30.30;75.30
13464;DHT22;6804;48.774;9.174;2023-06-10T12:22:41;29.80;75.30
13464;DHT22;6804;48.774;9.174;2023-06-10T12:25:11;29.50;77.40
13464;DHT22;6804;48.774;9.174;2023-06-10T12:27:50;29.30;77.00
13464;DHT22;6804;48.774;9.174;2023-06-10T12:30:21;29.20;76.60
13464;DHT22;6804;48.774;9.174;2023-06-10T12:32:52;29.10;77.50
13464;DHT22;6804;48.774;9.174;2023-06-10T12:35:22;29.10;76.90
13464;DHT22;6804;48.774;9.174;2023-06-10T12:37:59;28.60;74.80
13464;DHT22;6804;48.774;9.174;2023-06-10T12:40:28;27.90;77.00
13464;DHT22;6804;48.774;9.174;2023-06-10T12:42:58;27.80;78.00
13464;DHT22;6804;48.774;9.174;2023-06-10T12:45:30;27.80;78.20
13464;DHT22;6804;48.774;9.174;2023-06-10T12:48:07;27.40;78.90
13464;DHT22;6804;48.774;9.174;2023-06-10T12:50:52;27.10;80.40
13464;DHT22;6804;48.774;9.174;2023-06-10T12:53:21;26.90;80.60
13464;DHT22;6804;48.774;9.174;2023-06-10T12:55:54;26.90;81.40
13464;DHT22;6804;48.774;9.174;2023-06-10T12:58:24;27.00;81.40
13464;DHT22;6804;48.774;9.174;2023-06-10T13:00:54;27.30;80.60
13464;DHT22;6804;48.774;9.174;2023-06-10T13:03:24;27.50;80.10
13464;DHT22;6804;48.774;9.174;2023-06-10T13:05:56;27.80;80.10
13464;DHT22;6804;48.774;9.174;2023-06-10T13:08:24;28.20;77.80
13464;DHT22;6804;48.774;9.174;2023-06-10T13:10:52;28.40;77.70
13464;DHT22;6804;48.774;9.174;2023-06-10T13:13:20;28.50;77.30
13464;DHT22;6804;48.774;9.174;2023-06-10T13:15:48;28.40;77.50
13464;DHT22;6804;48.774;9.174;2023-06-10T13:18:17;28.40;78.90
13464;DHT22;6804;48.774;9.174;2023-06-10T13:20:48;28.70;78.10
13464;DHT22;6804;48.774;9.174;2023-06-10T13:23:21;28.90;76.30
13464;DHT22;6804;48.774;9.174;2023-06-10T13:25:50;29.00;76.10
13464;DHT22;6804;48.774;9.174;2023-06-10T13:28:24;29.00;76.60
13464;DHT22;6804;48.774;9.174;2023-06-10T13:30:52;29.10;76.00
13464;DHT22;6804;48.774;9.174;2023-06-10T13:33:21;29.30;75.90
13464;DHT22;6804;48.774;9.174;2023-06-10T13:35:49;29.40;75.50
13464;DHT22;6804;48.774;9.174;2023-06-10T13:38:24;29.60;75.30
13464;DHT22;6804;48.774;9.174;2023-06-10T13:40:52;29.80;74.80
13464;DHT22;6804;48.774;9.174;2023-06-10T13:43:23;30.10;73.60
13464;DHT22;6804;48.774;9.174;2023-06-10T13:45:56;30.30;72.40
13464;DHT22;6804;48.774;9.174;2023-06-10T13:48:26;30.40;72.30
13464;DHT22;6804;48.774;9.174;2023-06-10T13:50:54;30.60;71.20
13464;DHT22;6804;48.774;9.174;2023-06-10T13:53:23;30.10;71.80
13464;DHT22;6804;48.774;9.174;2023-06-10T13:55:53;29.90;72.50
13464;DHT22;6804;48.774;9.174;2023-06-10T13:58:26;29.80;72.60
13464;DHT22;6804;48.774;9.174;2023-06-10T14:00:54;29.80;72.80
13464;DHT22;6804;48.774;9.174;2023-06-10T14:03:24;29.70;73.10
13464;DHT22;6804;48.774;9.174;2023-06-10T14:05:53;29.60;73.00
13464;DHT22;6804;48.774;9.174;2023-06-10T14:08:25;29.50;73.50
13464;DHT22;6804;48.774;9.174;2023-06-10T14:10:55;29.60;73.20
13464;DHT22;6804;48.774;9.174;2023-06-10T14:13:26;29.60;72.00
13464;DHT22;6804;48.774;9.174;2023-06-10T14:15:55;29.70;72.60
13464;DHT22;6804;48.774;9.174;2023-06-10T14:18:27;29.80;72.20
13464;DHT22;6804;48.774;9.174;2023-06-10T14:20:54;30.00;72.30
13464;DHT22;6804;48.774;9.174;2023-06-10T14:23:27;30.10;71.90
13464;DHT22;6804;48.774;9.174;2023-06-10T14:25:55;30.40;70.60
13464;DHT22;6804;48.774;9.174;2023-06-10T14:28:24;30.50;70.80
13464;DHT22;6804;48.774;9.174;2023-06-10T14:30:55;30.00;70.70
13464;DHT22;6804;48.774;9.174;2023-06-10T14:33:24;29.30;71.90
13464;DHT22;6804;48.774;9.174;2023-06-10T14:35:52;28.40;73.30
13464;DHT22;6804;48.774;9.174;2023-06-10T14:38:22;27.90;75.00
13464;DHT22;6804;48.774;9.174;2023-06-10T14:40:54;27.90;75.40
13464;DHT22;6804;48.774;9.174;2023-06-10T14:43:22;27.90;74.90
13464;DHT22;6804;48.774;9.174;2023-06-10T14:45:50;27.90;75.80
13464;DHT22;6804;48.774;9.174;2023-06-10T14:48:27;28.20;75.40
13464;DHT22;6804;48.774;9.174;2023-06-10T14:50:55;28.50;76.00
13464;DHT22;6804;48.774;9.174;2023-06-10T14:53:29;28.60;75.60
13464;DHT22;6804;48.774;9.174;2023-06-10T14:55:58;28.40;75.60
13464;DHT22;6804;48.774;9.174;2023-06-10T14:58:27;28.20;76.20
13464;DHT22;6804;48.774;9.174;2023-06-10T15:00:57;28.20;76.50
13464;DHT22;6804;48.774;9.174;2023-06-10T15:03:26;28.20;76.10
13464;DHT22;6804;48.774;9.174;2023-06-10T15:05:55;28.30;75.50
13464;DHT22;6804;48.774;9.174;2023-06-10T15:08:26;28.30;75.20
13464;DHT22;6804;48.774;9.174;2023-06-10T15:10:54;28.10;75.30
13464;DHT22;6804;48.774;9.174;2023-06-10T15:13:28;28.00;76.30
13464;DHT22;6804;48.774;9.174;2023-06-10T15:15:57;27.90;77.10
13464;DHT22;6804;48.774;9.174;2023-06-10T15:18:25;27.90;76.70
13464;DHT22;6804;48.774;9.174;2023-06-10T15:20:54;27.80;77.20
13464;DHT22;6804;48.774;9.174;2023-06-10T15:23:26;27.60;77.80
13464;DHT22;6804;48.774;9.174;2023-06-10T15:25:57;27.40;78.60
13464;DHT22;6804;48.774;9.174;2023-06-10T15:28:28;27.20;79.00
13464;DHT22;6804;48.774;9.174;2023-06-10T15:30:55;27.20;79.40
13464;DHT22;6804;48.774;9.174;2023-06-10T15:33:27;27.20;79.70
13464;DHT22;6804;48.774;9.174;2023-06-10T15:35:57;27.40;79.60
13464;DHT22;6804;48.774;9.174;2023-06-10T15:38:25;27.70;78.40
13464;DHT22;6804;48.774;9.174;2023-06-10T15:40:59;28.00;75.90
13464;DHT22;6804;48.774;9.174;2023-06-10T15:43:31;28.00;74.60
13464;DHT22;6804;48.774;9.174;2023-06-10T15:45:59;28.00;74.90
13464;DHT22;6804;48.774;9.174;2023-06-10T15:48:30;28.00;75.10
13464;DHT22;6804;48.774;9.174;2023-06-10T15:51:01;28.10;76.00
13464;DHT22;6804;48.774;9.174;2023-06-10T15:53:28;28.30;75.70
13464;DHT22;6804;48.774;9.174;2023-06-10T15:55:57;28.40;75.40
13464;DHT22;6804;48.774;9.174;2023-06-10T15:58:29;28.40;75.40
13464;DHT22;6804;48.774;9.174;2023-06-10T16:01:01;28.20;75.30
13464;DHT22;6804;48.774;9.174;2023-06-10T16:03:29;28.10;76.00
13464;DHT22;6804;48.774;9.174;2023-06-10T16:05:58;28.10;75.20
13464;DHT22;6804;48.774;9.174;2023-06-10T16:08:28;27.90;74.50